Time;durP1;ratioP1;P1;durP2;ratioP2;P2;SDS_P1;SDS_P2;PMS_P1;PMS_P2;Temp;Humidity;BMP_temperature;BMP_pressure;BME280_temperature;BME280_humidity;BME280_pressure;Samples;Min_cycle;Max_cycle;Signal;HPM_P1;HPM_P2
2021/11/02 00:00:33;;;;;;;35.73;17.37;;;;;;;10.13;76.74;99278.27;1768501;81;21038;-86
2021/11/02 00:03:01;;;;;;;28.85;16.60;;;;;;;10.14;76.79;99271.94;1768402;81;21539;-86
2021/11/02 00:05:27;;;;;;;21.05;13.15;;;;;;;10.17;76.81;99268.08;1768467;81;21021;-86
2021/11/02 00:07:53;;;;;;;20.97;11.97;;;;;;;10.16;76.83;99269.92;1768736;81;21069;-86
2021/11/02 00:10:19;;;;;;;22.22;12.13;;;;;;;10.15;76.85;99258.94;1740410;81;21067;-87
2021/11/02 00:12:45;;;;;;;18.98;12.45;;;;;;;10.15;76.92;99255.45;1768692;81;21097;-86
2021/11/02 00:15:12;;;;;;;22.55;12.28;;;;;;;10.16;76.94;99263.77;1768856;81;21001;-86
2021/11/02 00:17:39;;;;;;;24.40;14.87;;;;;;;10.16;76.97;99256.59;1768215;81;21545;-86
2021/11/02 00:20:09;;;;;;;24.23;14.28;;;;;;;10.18;77.02;99254.55;1768706;81;21062;-86
2021/11/02 00:22:37;;;;;;;21.37;13.15;;;;;;;10.15;77.05;99250.95;1768548;81;27010;-86
2021/11/02 00:25:04;;;;;;;31.68;15.60;;;;;;;10.16;77.11;99249.94;1768780;81;20989;-86
2021/11/02 00:27:34;;;;;;;26.45;13.70;;;;;;;10.17;77.14;99254.22;1768741;80;21061;-86
2021/11/02 00:30:00;;;;;;;28.02;14.50;;;;;;;10.17;77.17;99252.89;1767887;80;21541;-86
2021/11/02 00:32:27;;;;;;;28.98;14.85;;;;;;;10.16;77.19;99264.59;1767109;81;21668;-86
2021/11/02 00:34:53;;;;;;;32.08;17.42;;;;;;;10.13;77.21;99256.95;1766772;81;21144;-86
2021/11/02 00:37:19;;;;;;;25.15;13.75;;;;;;;10.14;77.25;99253.28;1767033;81;20986;-86
2021/11/02 00:39:45;;;;;;;29.67;13.65;;;;;;;10.13;77.30;99242.81;1767160;81;20981;-86
2021/11/02 00:42:11;;;;;;;18.87;10.65;;;;;;;10.12;77.31;99240.66;1767205;81;21479;-85
2021/11/02 00:44:38;;;;;;;20.65;11.12;;;;;;;10.08;77.31;99236.73;1767137;80;21583;-86
2021/11/02 00:47:05;;;;;;;22.30;12.10;;;;;;;10.02;77.33;99234.34;1767211;80;21305;-85
2021/11/02 00:49:32;;;;;;;26.37;14.15;;;;;;;9.99;77.40;99235.25;1766554;79;21015;-86
2021/11/02 00:51:58;;;;;;;38.88;19.17;;;;;;;9.93;77.45;99234.67;1766943;81;21041;-86
2021/11/02 00:54:24;;;;;;;22.58;13.15;;;;;;;9.92;77.48;99223.73;1767228;81;20950;-87
2021/11/02 00:56:50;;;;;;;39.80;21.07;;;;;;;9.89;77.52;99225.42;1766950;80;21526;-87
2021/11/02 00:59:16;;;;;;;99.17;42.45;;;;;;;9.90;77.55;99222.58;1767144;81;21751;-87
2021/11/02 01:01:42;;;;;;;65.75;30.17;;;;;;;9.90;77.57;99217.75;1766622;81;21030;-87
2021/11/02 01:04:09;;;;;;;102.42;46.40;;;;;;;9.90;77.63;99221.24;1767081;81;21026;-87
2021/11/02 01:06:36;;;;;;;65.55;29.72;;;;;;;9.90;77.68;99217.25;1766932;81;21069;-86
2021/11/02 01:09:04;;;;;;;62.60;28.12;;;;;;;9.91;77.72;99214.08;1767219;81;21030;-86
2021/11/02 01:11:30;;;;;;;65.90;31.35;;;;;;;9.91;77.76;99199.44;1768055;81;21151;-86
2021/11/02 01:13:56;;;;;;;43.05;20.88;;;;;;;9.92;77.80;99194.44;1768726;81;21061;-86
2021/11/02 01:16:25;;;;;;;32.23;16.35;;;;;;;9.89;77.84;99190.80;1768665;81;21049;-86
2021/11/02 01:18:55;;;;;;;31.00;17.87;;;;;;;9.86;77.85;99191.20;1768610;81;21006;-86
2021/11/02 01:21:22;;;;;;;33.30;17.82;;;;;;;9.83;77.92;99188.92;1768558;81;21061;-86
2021/11/02 01:23:48;;;;;;;21.27;12.98;;;;;;;9.82;77.95;99184.61;1767364;81;21814;-86
2021/11/02 01:26:14;;;;;;;21.27;12.88;;;;;;;9.84;77.99;99193.24;1766930;81;21570;-86
2021/11/02 01:28:41;;;;;;;20.82;12.13;;;;;;;9.85;78.02;99184.24;1766991;81;21010;-86
2021/11/02 01:31:07;;;;;;;19.62;12.28;;;;;;;9.89;78.05;99188.14;1766964;81;21117;-86
2021/11/02 01:33:33;;;;;;;18.00;11.73;;;;;;;9.89;78.08;99181.48;1767162;81;20859;-86
2021/11/02 01:35:59;;;;;;;18.25;11.12;;;;;;;9.89;78.10;99180.15;1766576;80;21042;-86
2021/11/02 01:38:25;;;;;;;20.05;11.38;;;;;;;9.91;78.14;99179.46;1767244;81;21006;-86
2021/11/02 01:40:54;;;;;;;21.12;11.55;;;;;;;9.93;78.15;99170.75;1767159;80;21522;-86
2021/11/02 01:43:21;;;;;;;20.35;12.53;;;;;;;9.92;78.21;99169.13;1767257;81;21038;-86
2021/11/02 01:45:49;;;;;;;21.35;12.98;;;;;;;9.89;78.27;99165.00;1766903;81;21014;-87
2021/11/02 01:48:18;;;;;;;25.15;14.45;;;;;;;9.89;78.30;99164.17;1766908;81;21881;-87
2021/11/02 01:50:46;;;;;;;17.53;12.57;;;;;;;9.88;78.36;99162.05;1767422;81;21009;-86
2021/11/02 01:53:12;;;;;;;22.20;12.65;;;;;;;9.90;78.37;99157.84;1767435;81;21082;-86
2021/11/02 01:55:39;;;;;;;22.10;13.00;;;;;;;9.91;78.38;99146.17;1767705;81;21022;-86
2021/11/02 01:58:06;;;;;;;19.48;12.60;;;;;;;9.92;78.41;99140.63;1768184;81;21487;-86
2021/11/02 02:00:33;;;;;;;22.30;12.45;;;;;;;9.94;78.44;99135.95;1769198;81;21154;-86
2021/11/02 02:03:27;;;;;;;17.25;11.18;;;;;;;9.90;78.45;99132.54;1768965;81;21058;-86
2021/11/02 02:06:44;;;;;;;17.55;10.85;;;;;;;9.86;78.49;99135.28;1768499;81;21640;-85
2021/11/02 02:09:24;;;;;;;18.62;10.32;;;;;;;9.87;78.51;99124.95;1769145;81;21092;-87
2021/11/02 02:12:14;;;;;;;17.12;10.63;;;;;;;9.86;78.54;99120.62;1758564;80;21403;-86
2021/11/02 02:15:19;;;;;;;20.08;10.72;;;;;;;9.82;78.57;99121.53;1769107;81;21224;-86
2021/11/02 02:18:09;;;;;;;17.12;10.63;;;;;;;9.78;78.60;99107.50;1769122;81;21514;-87
2021/11/02 02:21:19;;;;;;;16.23;9.98;;;;;;;9.78;78.61;99112.83;1769282;81;21051;-86
2021/11/02 02:24:40;;;;;;;21.33;11.48;;;;;;;9.75;78.67;99108.69;1769037;81;21001;-86
2021/11/02 02:27:29;;;;;;;28.67;13.35;;;;;;;9.75;78.72;99112.69;1780541;79;21026;-86
2021/11/02 02:29:55;;;;;;;20.60;12.30;;;;;;;9.75;78.73;99105.20;1777752;79;21128;-87
2021/11/02 02:32:23;;;;;;;19.80;13.25;;;;;;;9.71;78.78;99099.98;1769109;81;20990;-86
2021/11/02 02:34:53;;;;;;;26.87;13.15;;;;;;;9.67;78.80;99102.22;1768983;81;20979;-86
2021/11/02 02:37:19;;;;;;;18.73;12.63;;;;;;;9.62;78.83;99094.48;1743647;81;26536;-87
2021/11/02 02:39:46;;;;;;;21.00;13.28;;;;;;;9.59;78.87;99094.37;1769188;81;21061;-87
2021/11/02 02:42:14;;;;;;;24.57;13.43;;;;;;;9.57;78.89;99087.61;1768722;81;21530;-86
2021/11/02 02:44:41;;;;;;;20.10;11.78;;;;;;;9.56;78.93;99085.96;1769067;81;21018;-87
2021/11/02 02:47:07;;;;;;;24.23;11.60;;;;;;;9.56;79.00;99089.95;1769231;81;21009;-87
2021/11/02 02:49:33;;;;;;;25.00;13.75;;;;;;;9.55;79.05;99085.14;1768330;81;21057;-86
2021/11/02 02:52:00;;;;;;;23.00;12.37;;;;;;;9.51;79.07;99080.72;1768803;81;21018;-87
2021/11/02 02:54:26;;;;;;;23.42;13.65;;;;;;;9.51;79.12;99075.39;1768688;81;21499;-86
2021/11/02 02:56:54;;;;;;;21.17;14.93;;;;;;;9.50;79.15;99076.40;1716169;81;21046;-85
2021/11/02 02:59:21;;;;;;;21.40;12.82;;;;;;;9.48;79.23;99081.11;1767168;81;21251;-86
2021/11/02 03:01:48;;;;;;;23.60;13.43;;;;;;;9.48;79.28;99081.11;1766738;81;21556;-86
2021/11/02 03:04:17;;;;;;;26.82;14.03;;;;;;;9.47;79.31;99084.78;1767183;81;21010;-86
2021/11/02 03:06:48;;;;;;;22.75;12.88;;;;;;;9.46;79.38;99087.11;1739164;81;21178;-86
2021/11/02 03:09:14;;;;;;;20.75;12.58;;;;;;;9.44;79.42;99081.17;1767093;80;21065;-87
2021/11/02 03:11:41;;;;;;;22.77;12.90;;;;;;;9.44;79.46;99085.17;1767194;81;21066;-86
2021/11/02 03:14:10;;;;;;;24.00;13.58;;;;;;;9.46;79.53;99084.45;1739470;81;21034;-86
2021/11/02 03:17:00;;;;;;;17.15;10.38;;;;;;;9.46;79.58;99081.80;1767759;81;21073;-87
2021/11/02 03:44:44;;;;;;;11.65;7.17;;;;;;;9.39;80.10;99084.13;1768644;81;21054;-86
2021/11/02 03:49:52;;;;;;;10.25;7.00;;;;;;;9.31;80.18;99089.08;1762171;80;21475;-86
2021/11/02 03:54:52;;;;;;;10.32;6.40;;;;;;;9.29;80.30;99084.44;1757169;81;21624;-86
2021/11/02 03:57:37;;;;;;;10.90;6.97;;;;;;;9.32;80.34;99084.58;1757712;81;21033;-87
2021/11/02 04:00:25;;;;;;;10.17;6.10;;;;;;;9.33;80.40;99081.71;1758008;80;21165;-86
2021/11/02 04:27:56;;;;;;;3.75;2.70;;;;;;;9.18;80.83;99066.88;1745790;82;21664;-86
2021/11/02 04:46:56;;;;;;;2.62;2.00;;;;;;;9.02;81.14;99057.34;1759050;81;21047;-85
2021/11/02 05:49:07;;;;;;;2.00;1.80;;;;;;;8.49;81.90;99009.05;1748358;82;21083;-86
2021/11/02 05:54:55;;;;;;;21.82;13.68;;;;;;;8.43;81.97;99009.82;1749558;82;21048;-86
2021/11/02 05:56:38;;;;;;;7.47;4.85;;;;;;;8.39;82.02;99005.90;1719277;81;21006;-86
2021/11/02 05:59:30;;;;;;;16.67;9.00;;;;;;;8.39;82.04;98993.95;1747403;80;21043;-86
2021/11/02 06:04:30;;;;;;;12.25;6.80;;;;;;;8.35;82.09;98995.83;1749700;81;21061;-86
2021/11/02 06:06:51;;;;;;;10.25;6.25;;;;;;;8.33;82.15;98995.22;1726713;81;35024;-87
2021/11/02 06:28:56;;;;;;;6.72;4.20;;;;;;;8.24;82.39;99010.41;1736909;82;21258;-85
2021/11/02 06:31:31;;;;;;;9.98;6.03;;;;;;;8.24;82.43;99005.09;1736300;82;21058;-84
2021/11/02 06:39:25;;;;;;;17.45;8.03;;;;;;;8.19;82.50;98996.89;1708542;84;21030;-84
2021/11/02 06:47:05;;;;;;;13.00;8.63;;;;;;;8.17;82.57;99004.20;1741243;81;21007;-82
2021/11/02 06:49:51;;;;;;;16.37;8.30;;;;;;;8.17;82.61;99000.72;1741108;80;21245;-81
2021/11/02 06:57:53;;;;;;;28.52;12.15;;;;;;;8.16;82.68;99005.23;1744513;81;21009;-82
2021/11/02 07:20:02;;;;;;;12.93;8.80;;;;;;;8.19;82.85;99036.72;1781934;80;21085;-81
2021/11/02 07:25:22;;;;;;;7.95;5.95;;;;;;;8.22;82.86;99039.00;1781691;80;21046;-81
2021/11/02 08:45:50;;;;;;;14.60;6.62;;;;;;;8.57;83.39;99031.19;1733604;82;21792;-81
2021/11/02 08:48:04;;;;;;;5.40;3.52;;;;;;;8.58;83.37;99034.17;1717120;81;21005;-80
2021/11/02 08:50:40;;;;;;;10.63;4.10;;;;;;;8.55;83.37;99035.36;1766077;79;21106;-80
2021/11/02 08:53:06;;;;;;;9.05;4.75;;;;;;;8.55;83.36;99039.88;1727380;82;21049;-80
2021/11/02 08:55:34;;;;;;;12.15;6.80;;;;;;;8.58;83.40;99040.81;1731175;82;21121;-80
2021/11/02 08:58:00;;;;;;;10.25;6.03;;;;;;;8.58;83.40;99028.36;1733020;82;21101;-80
2021/11/02 09:00:26;;;;;;;4.58;3.35;;;;;;;8.58;83.40;99031.02;1752786;81;21010;-80
2021/11/02 09:02:56;;;;;;;7.15;3.70;;;;;;;8.56;83.39;99038.84;1732193;82;21099;-80
2021/11/02 09:05:30;;;;;;;5.75;3.77;;;;;;;8.51;83.38;99048.20;1704628;83;21014;-81
2021/11/02 09:07:58;;;;;;;4.62;2.83;;;;;;;8.52;83.40;99048.52;1728728;82;21598;-81
2021/11/02 09:10:24;;;;;;;9.68;6.28;;;;;;;8.51;83.42;99044.21;1727860;81;21496;-80
2021/11/02 09:12:55;;;;;;;16.93;8.70;;;;;;;8.52;83.43;99051.68;1723436;82;21467;-81
2021/11/02 09:15:28;;;;;;;16.62;9.90;;;;;;;8.49;83.44;99048.91;1722276;82;21042;-80
2021/11/02 09:17:55;;;;;;;16.07;8.33;;;;;;;8.46;83.45;99043.97;1726654;82;21042;-81
2021/11/02 09:20:22;;;;;;;15.05;9.75;;;;;;;8.45;83.44;99036.18;1728692;82;21093;-80
2021/11/02 09:22:48;;;;;;;13.18;6.90;;;;;;;8.47;83.47;99036.33;1729042;82;21310;-80
2021/11/02 09:25:15;;;;;;;5.05;3.60;;;;;;;8.49;83.46;99039.61;1730009;82;21113;-80
2021/11/02 09:27:45;;;;;;;4.90;3.35;;;;;;;8.49;83.48;99036.95;1731192;81;21005;-81
2021/11/02 09:30:11;;;;;;;;;;;;;;;8.51;83.49;99046.87;1759212;81;21035;-81
2021/11/02 09:32:43;;;;;;;6.78;4.62;;;;;;;8.53;83.50;99051.50;1756522;81;20225;-80
2021/11/02 09:35:10;;;;;;;5.95;3.42;;;;;;;8.51;83.50;99051.39;1685260;82;21523;-81
2021/11/02 09:37:38;;;;;;;4.75;3.37;;;;;;;8.49;83.48;99046.25;1720041;82;21134;-81
2021/11/02 09:40:30;;;;;;;5.10;3.67;;;;;;;8.49;83.50;99050.73;1729666;82;21503;-81
2021/11/02 09:43:22;;;;;;;4.60;3.00;;;;;;;8.49;83.51;99058.70;1701765;83;21001;-80
2021/11/02 09:46:29;;;;;;;5.15;3.08;;;;;;;8.50;83.51;99052.39;1645507;86;21125;-80
2021/11/02 09:49:41;;;;;;;6.28;3.35;;;;;;;8.50;83.51;99052.39;1735932;81;21138;-81
2021/11/02 09:52:22;;;;;;;3.08;2.30;;;;;;;8.54;83.53;99052.33;1747602;80;21436;-81
2021/11/02 09:55:03;;;;;;;4.55;3.35;;;;;;;8.50;83.52;99052.39;1704654;83;21085;-81
2021/11/02 09:57:54;;;;;;;4.30;2.87;;;;;;;8.50;83.54;99051.89;1719687;82;21053;-81
2021/11/02 10:00:53;;;;;;;5.53;3.22;;;;;;;8.50;83.55;99045.25;1702255;84;21536;-81
2021/11/02 10:03:49;;;;;;;3.42;2.62;;;;;;;8.49;83.54;99046.25;1702316;83;21609;-80
2021/11/02 10:06:50;;;;;;;3.92;3.10;;;;;;;8.50;83.55;99051.89;1727219;82;21003;-80
2021/11/02 10:09:59;;;;;;;2.65;2.25;;;;;;;8.49;83.58;99046.25;1720256;81;21062;-82
2021/11/02 10:12:54;;;;;;;6.28;3.45;;;;;;;8.48;83.58;99049.91;1708374;82;21509;-81
2021/11/02 10:15:46;;;;;;;5.95;3.02;;;;;;;8.50;83.58;99045.75;1731613;82;21023;-81
2021/11/02 10:18:30;;;;;;;3.70;3.10;;;;;;;8.47;83.58;99046.95;1690468;82;21170;-81
2021/11/02 10:21:21;;;;;;;4.72;3.58;;;;;;;8.49;83.61;99051.56;1731451;81;21065;-81
2021/11/02 10:24:23;;;;;;;4.62;3.55;;;;;;;8.55;83.63;99053.95;1752595;81;21075;-81
2021/11/02 10:27:31;;;;;;;4.20;3.00;;;;;;;8.56;83.65;99057.44;1693917;81;21111;-81
2021/11/02 10:30:33;;;;;;;7.97;3.58;;;;;;;8.57;83.64;99057.77;1724175;82;21007;-80
2021/11/02 10:33:24;;;;;;;6.72;3.70;;;;;;;8.58;83.68;99055.43;1722879;82;21581;-81
2021/11/02 10:36:18;;;;;;;4.97;3.50;;;;;;;8.63;83.66;99060.98;1724555;82;21098;-80
2021/11/02 10:39:14;;;;;;;3.85;3.25;;;;;;;8.63;83.65;99063.64;1719427;82;21548;-80
2021/11/02 10:41:46;;;;;;;11.25;6.72;;;;;;;8.63;83.67;99067.62;1730622;82;21120;-80
2021/11/02 10:44:22;;;;;;;6.72;4.10;;;;;;;8.66;83.69;99069.89;1724996;82;21058;-81
2021/11/02 10:47:09;;;;;;;7.70;4.33;;;;;;;8.69;83.70;99060.24;1733629;81;21134;-81
2021/11/02 10:50:07;;;;;;;11.53;6.72;;;;;;;8.71;83.70;99067.50;1720679;82;21022;-81
2021/11/02 10:52:36;;;;;;;11.63;8.33;;;;;;;8.71;83.70;99070.98;1771700;80;21033;-80
2021/11/02 10:55:39;;;;;;;9.83;7.50;;;;;;;8.71;83.71;99075.48;1755543;81;21003;-79
2021/11/02 10:58:27;;;;;;;7.60;5.03;;;;;;;8.67;83.67;99082.18;1755678;81;21012;-81
2021/11/02 11:00:53;;;;;;;6.47;3.42;;;;;;;8.62;83.66;99073.97;1754800;81;21771;-80
2021/11/02 11:03:29;;;;;;;7.00;4.28;;;;;;;8.61;83.66;99067.00;1736891;81;21033;-81
2021/11/02 11:05:59;;;;;;;4.65;2.72;;;;;;;8.64;83.68;99066.62;1723300;82;21013;-80
2021/11/02 11:08:32;;;;;;;4.83;3.17;;;;;;;8.66;83.65;99068.56;1746245;82;21564;-81
2021/11/02 11:11:02;;;;;;;9.18;3.50;;;;;;;8.61;83.63;99069.66;1742796;82;21005;-80
2021/11/02 11:13:30;;;;;;;21.55;8.03;;;;;;;8.64;83.62;99069.28;1737797;82;21234;-79
2021/11/02 11:16:17;;;;;;;16.65;6.22;;;;;;;8.65;83.64;99073.59;1725023;83;21008;-80
2021/11/02 11:18:58;;;;;;;17.85;6.53;;;;;;;8.65;83.63;99072.26;1726692;82;21952;-80
2021/11/02 11:21:25;;;;;;;37.17;13.48;;;;;;;8.67;83.63;99067.56;1730851;81;21089;-80
2021/11/02 11:24:06;;;;;;;21.70;7.40;;;;;;;8.70;83.61;99071.17;1746911;82;20995;-80
2021/11/02 11:26:31;;;;;;;14.15;6.30;;;;;;;8.73;83.61;99064.14;1748179;82;21610;-79
2021/11/02 11:29:00;;;;;;;16.02;4.75;;;;;;;8.76;83.58;99069.09;1749038;82;21048;-80
2021/11/02 11:31:26;;;;;;;8.00;4.47;;;;;;;8.76;83.58;99068.56;1746590;82;21052;-79
2021/11/02 11:34:02;;;;;;;19.87;10.18;;;;;;;8.77;83.56;99060.09;1749560;82;21012;-80
2021/11/02 11:36:29;;;;;;;57.35;35.83;;;;;;;8.77;83.54;99062.25;1743423;82;21059;-81
2021/11/02 11:39:01;;;;;;;50.83;29.02;;;;;;;8.75;83.54;99056.81;1746766;82;21138;-79
2021/11/02 11:41:28;;;;;;;52.88;34.03;;;;;;;8.71;83.51;99059.53;1739652;82;21001;-80
2021/11/02 11:43:55;;;;;;;60.25;36.17;;;;;;;8.69;83.52;99069.01;1749259;82;21025;-80
2021/11/02 11:46:22;;;;;;;40.88;18.70;;;;;;;8.64;83.50;99069.28;1744162;81;21900;-81
2021/11/02 11:48:54;;;;;;;20.40;11.12;;;;;;;8.57;83.48;99071.05;1720057;82;21032;-81
2021/11/02 11:51:28;;;;;;;15.80;9.23;;;;;;;8.53;83.50;99070.10;1752741;81;21088;-81
2021/11/02 11:53:59;;;;;;;16.20;11.08;;;;;;;8.50;83.49;99075.80;1758345;81;21006;-81
2021/11/02 11:56:33;;;;;;;22.82;14.53;;;;;;;8.51;83.49;99069.45;1780678;80;21023;-81
2021/11/02 11:59:01;;;;;;;15.10;7.92;;;;;;;8.49;83.46;99070.16;1772549;80;20980;-80
2021/11/02 12:02:10;;;;;;;21.12;10.58;;;;;;;8.49;83.46;99072.81;1756827;81;21045;-80
2021/11/02 12:04:44;;;;;;;13.30;7.37;;;;;;;8.52;83.46;99069.77;1709692;83;21119;-80
2021/11/02 12:07:31;;;;;;;21.77;11.00;;;;;;;8.58;83.43;99068.72;1757881;81;21037;-80
2021/11/02 12:10:05;;;;;;;18.57;8.70;;;;;;;8.61;83.44;99068.33;1758527;81;21497;-80
2021/11/02 12:12:31;;;;;;;16.95;8.63;;;;;;;8.62;83.43;99070.78;1735041;81;21020;-81
2021/11/02 12:14:57;;;;;;;16.20;8.33;;;;;;;8.62;83.40;99072.64;1758264;81;21012;-81
2021/11/02 12:17:27;;;;;;;15.35;8.33;;;;;;;8.65;83.40;99066.95;1762868;80;21033;-81
2021/11/02 12:20:04;;;;;;;8.93;5.12;;;;;;;8.70;83.41;99065.34;1758500;81;21060;-81
2021/11/02 12:22:41;;;;;;;8.98;5.28;;;;;;;8.74;83.37;99067.12;1758047;80;21026;-81
2021/11/02 12:25:11;;;;;;;12.20;9.15;;;;;;;8.76;83.36;99071.75;1730480;81;20999;-81
2021/11/02 12:27:41;;;;;;;13.72;11.10;;;;;;;8.84;83.35;99067.61;1753867;81;21052;-81
2021/11/02 12:30:16;;;;;;;19.10;12.37;;;;;;;8.93;83.33;99069.14;1757840;81;21105;-81
2021/11/02 12:32:46;;;;;;;12.43;7.83;;;;;;;8.99;83.31;99075.02;1766974;80;21008;-81
2021/11/02 12:35:18;;;;;;;8.65;6.30;;;;;;;9.04;83.27;99073.95;1781969;79;21062;-81
2021/11/02 12:37:56;;;;;;;8.80;6.10;;;;;;;9.06;83.26;99077.22;1787304;79;20983;-81
2021/11/02 12:40:26;;;;;;;9.00;6.10;;;;;;;9.09;83.27;99076.00;1781156;80;21005;-80
2021/11/02 12:42:52;;;;;;;12.25;7.12;;;;;;;9.16;83.25;99075.05;1795468;79;21150;-81
2021/11/02 12:45:21;;;;;;;13.88;8.85;;;;;;;9.20;83.26;99071.48;1778485;79;21046;-81
2021/11/02 12:47:48;;;;;;;16.42;10.30;;;;;;;9.26;83.23;99077.36;1775816;79;21078;-81
2021/11/02 12:50:16;;;;;;;28.67;14.07;;;;;;;9.29;83.20;99074.34;1757496;80;21007;-80
2021/11/02 12:52:44;;;;;;;21.17;11.30;;;;;;;9.26;83.15;99078.18;1770912;80;21064;-81
2021/11/02 12:55:14;;;;;;;25.57;13.53;;;;;;;9.30;83.14;99078.11;1739887;81;21171;-81
2021/11/02 12:57:46;;;;;;;11.63;7.03;;;;;;;9.31;83.11;99085.09;1750287;81;20978;-81
2021/11/02 13:00:16;;;;;;;12.28;7.42;;;;;;;9.30;83.08;99083.94;1761454;81;21471;-81
2021/11/02 13:02:57;;;;;;;10.85;7.35;;;;;;;9.30;83.08;99090.09;1760505;81;21002;-81
2021/11/02 13:05:25;;;;;;;18.17;8.38;;;;;;;9.31;83.05;99088.25;1757105;81;21097;-81
2021/11/02 13:08:12;;;;;;;12.33;7.17;;;;;;;9.28;83.04;99094.80;1717213;81;21526;-81
2021/11/02 13:10:39;;;;;;;14.63;7.85;;;;;;;9.28;83.00;99091.30;1723492;82;21579;-81
2021/11/02 13:13:07;;;;;;;13.80;10.68;;;;;;;9.29;83.00;99095.08;1736182;82;21014;-81
2021/11/02 13:15:54;;;;;;;21.27;15.10;;;;;;;9.29;82.97;99095.08;1735835;82;20999;-81
2021/11/02 13:18:34;;;;;;;28.35;19.55;;;;;;;9.27;82.94;99095.80;1741322;81;21089;-81
2021/11/02 13:21:30;;;;;;;25.72;14.90;;;;;;;9.26;82.95;99099.47;1750406;81;21625;-81
2021/11/02 13:24:14;;;;;;;38.02;20.70;;;;;;;9.22;82.94;99092.09;1731472;81;20985;-81
2021/11/02 13:26:44;;;;;;;17.30;9.05;;;;;;;9.17;82.91;99101.97;1734135;81;21545;-81
2021/11/02 13:29:17;;;;;;;11.90;5.58;;;;;;;9.18;82.86;99105.45;1730009;82;21506;-81
2021/11/02 13:31:47;;;;;;;15.78;8.30;;;;;;;9.17;82.87;99112.60;1736114;82;21018;-80
2021/11/02 13:34:17;;;;;;;8.00;4.20;;;;;;;9.19;82.87;99105.24;1733564;81;21216;-81
2021/11/02 13:36:44;;;;;;;8.43;5.15;;;;;;;9.21;82.86;99107.22;1708843;83;21006;-81
2021/11/02 13:39:14;;;;;;;11.57;5.45;;;;;;;9.19;82.83;99106.57;1685035;84;21082;-81
2021/11/02 13:41:51;;;;;;;6.30;4.22;;;;;;;9.19;82.81;99102.58;1708832;84;21022;-81
2021/11/02 13:44:19;;;;;;;9.13;5.28;;;;;;;9.18;82.81;99104.95;1709146;84;21026;-81
2021/11/02 13:46:48;;;;;;;10.38;4.70;;;;;;;9.18;82.79;99109.44;1709451;84;21478;-81
2021/11/02 13:49:15;;;;;;;6.10;4.25;;;;;;;9.18;82.79;99106.28;1709255;84;21072;-80
2021/11/02 13:51:41;;;;;;;4.72;3.60;;;;;;;9.22;82.77;99110.17;1714154;82;21552;-81
2021/11/02 13:54:08;;;;;;;5.30;3.55;;;;;;;9.30;82.78;99106.05;1752369;81;20998;-81
2021/11/02 13:56:37;;;;;;;15.48;7.12;;;;;;;9.36;82.76;99102.61;1706678;84;21090;-81
2021/11/02 13:59:05;;;;;;;16.02;7.85;;;;;;;9.39;82.74;99102.21;1738958;82;25852;-81
2021/11/02 14:01:48;;;;;;;9.65;6.87;;;;;;;9.42;82.70;99100.52;1739030;81;22267;-81
2021/11/02 14:04:36;;;;;;;8.58;4.67;;;;;;;9.49;82.68;99107.21;1739047;82;21070;-81
2021/11/02 14:07:11;;;;;;;9.00;8.05;;;;;;;9.50;82.63;99109.66;1739098;82;21552;-81
2021/11/02 14:09:43;;;;;;;10.08;7.12;;;;;;;9.56;82.60;99115.23;1738908;82;20975;-81
2021/11/02 14:12:25;;;;;;;7.83;4.75;;;;;;;9.61;82.56;99110.13;1739068;81;21350;-81
2021/11/02 14:14:52;;;;;;;6.00;4.50;;;;;;;9.70;82.52;99114.30;1738884;82;21039;-81
2021/11/02 14:17:20;;;;;;;6.03;3.05;;;;;;;9.76;82.49;99110.84;1739049;81;21083;-81
2021/11/02 14:19:48;;;;;;;9.35;4.85;;;;;;;9.76;82.45;99105.52;1739027;82;21456;-81
2021/11/02 14:22:17;;;;;;;29.45;12.60;;;;;;;9.71;82.41;99111.97;1738258;82;21537;-81
2021/11/02 14:24:47;;;;;;;35.83;18.55;;;;;;;9.67;82.36;99120.02;1735412;82;21247;-81
2021/11/02 14:27:21;;;;;;;9.15;5.58;;;;;;;9.64;82.31;99117.75;1752411;81;21480;-81
2021/11/02 14:29:57;;;;;;;4.72;3.10;;;;;;;9.63;82.26;99112.11;1706762;84;21464;-81
2021/11/02 14:32:45;;;;;;;4.45;3.02;;;;;;;9.61;82.23;99111.47;1738238;81;20989;-81
2021/11/02 14:35:12;;;;;;;11.30;3.80;;;;;;;9.57;82.16;99111.56;1738854;82;21027;-81
2021/11/02 14:37:49;;;;;;;4.45;2.90;;;;;;;9.50;82.16;99116.31;1738892;82;21131;-81
2021/11/02 14:40:33;;;;;;;4.30;2.50;;;;;;;9.45;82.14;99117.42;1738646;82;21578;-81
2021/11/02 14:43:19;;;;;;;19.85;10.23;;;;;;;9.37;82.10;99121.55;1738566;82;21051;-81
2021/11/02 14:45:53;;;;;;;27.95;13.80;;;;;;;9.32;82.06;99119.97;1738194;82;21505;-81
2021/11/02 14:48:40;;;;;;;35.98;18.73;;;;;;;9.32;82.05;99121.83;1736514;82;21004;-81
2021/11/02 14:51:21;;;;;;;34.55;18.67;;;;;;;9.30;82.03;99120.68;1739095;82;21827;-81
2021/11/02 14:53:48;;;;;;;22.25;12.25;;;;;;;9.28;82.02;99126.72;1756082;81;21039;-81
2021/11/02 14:56:21;;;;;;;16.25;8.48;;;;;;;9.24;82.01;99120.12;1756886;81;21012;-81
2021/11/02 14:58:52;;;;;;;24.25;10.55;;;;;;;9.19;81.96;99124.36;1757152;81;21004;-81
2021/11/02 15:01:42;;;;;;;20.88;11.15;;;;;;;9.14;81.97;99124.96;1757289;81;21051;-81
2021/11/02 15:04:18;;;;;;;14.33;8.38;;;;;;;9.12;81.95;99126.97;1757161;81;21102;-81
2021/11/02 15:06:56;;;;;;;11.10;7.28;;;;;;;9.08;81.96;99132.34;1757060;81;21051;-81
2021/11/02 15:09:26;;;;;;;11.05;6.80;;;;;;;9.07;82.00;99134.72;1757419;81;21490;-81
2021/11/02 15:11:52;;;;;;;15.43;9.15;;;;;;;9.03;81.99;99137.44;1757000;81;21083;-82
2021/11/02 15:14:22;;;;;;;17.67;9.30;;;;;;;9.03;82.02;99136.11;1733957;81;21043;-82
2021/11/02 15:16:52;;;;;;;19.55;10.55;;;;;;;9.03;82.05;99139.59;1757180;81;20997;-80
2021/11/02 15:19:19;;;;;;;;;;;;;;;9.02;82.05;99143.26;1760009;81;21028;-81
2021/11/02 15:21:54;;;;;;;9.85;7.58;;;;;;;9.04;82.08;99145.74;1757391;81;20186;-81
2021/11/02 15:24:26;;;;;;;6.67;5.55;;;;;;;9.04;82.08;99145.74;1735244;81;21040;-80
2021/11/02 15:27:17;;;;;;;10.72;8.55;;;;;;;9.04;82.06;99147.07;1757218;81;21492;-80
2021/11/02 15:29:52;;;;;;;17.70;10.65;;;;;;;9.05;82.11;99144.70;1757280;81;21532;-81
2021/11/02 15:32:21;;;;;;;24.98;14.75;;;;;;;9.08;82.12;99145.65;1756814;81;21074;-82
2021/11/02 15:34:55;;;;;;;31.52;15.25;;;;;;;9.10;82.15;99152.95;1757122;81;21016;-81
2021/11/02 15:37:23;;;;;;;23.47;11.40;;;;;;;9.13;82.15;99155.72;1757349;81;21012;-81
2021/11/02 15:40:03;;;;;;;19.77;9.00;;;;;;;9.13;82.17;99147.74;1757272;81;21375;-82
2021/11/02 15:42:35;;;;;;;12.47;7.67;;;;;;;9.14;82.18;99152.06;1757442;81;21154;-81
2021/11/02 15:45:05;;;;;;;17.70;10.40;;;;;;;9.12;82.18;99150.91;1757363;81;20992;-81
2021/11/02 15:47:33;;;;;;;32.17;14.05;;;;;;;9.12;82.18;99161.55;1757454;81;23561;-81
2021/11/02 15:50:06;;;;;;;25.82;13.60;;;;;;;9.14;82.23;99159.53;1757098;81;21035;-82
2021/11/02 15:52:35;;;;;;;29.10;17.05;;;;;;;9.17;82.25;99158.32;1726628;82;21438;-81
2021/11/02 15:55:13;;;;;;;53.38;30.55;;;;;;;9.19;82.27;99153.63;1724901;82;21168;-81
2021/11/02 15:57:54;;;;;;;61.50;34.83;;;;;;;9.21;82.27;99146.29;1724990;82;20997;-81
2021/11/02 16:00:33;;;;;;;191.05;84.58;;;;;;;9.19;82.27;99154.45;1725064;81;21417;-81
2021/11/02 16:03:00;;;;;;;115.77;47.15;;;;;;;9.19;82.27;99156.28;1725167;82;21398;-81
2021/11/02 16:05:29;;;;;;;93.95;37.73;;;;;;;9.15;82.29;99161.16;1729439;81;21012;-81
2021/11/02 16:07:56;;;;;;;69.05;29.98;;;;;;;9.14;82.28;99159.53;1729491;82;21056;-82
2021/11/02 16:10:31;;;;;;;109.15;42.08;;;;;;;9.10;82.28;99159.59;1729480;82;21517;-81
2021/11/02 16:13:03;;;;;;;122.20;47.53;;;;;;;9.03;82.31;99153.39;1710826;83;21538;-81
2021/11/02 16:15:31;;;;;;;129.40;53.63;;;;;;;8.95;82.31;99157.00;1711109;83;21635;-81
2021/11/02 16:18:00;;;;;;;131.72;51.30;;;;;;;8.86;82.30;99160.80;1711230;83;21061;-81
2021/11/02 16:20:31;;;;;;;106.07;43.33;;;;;;;8.84;82.30;99161.98;1711141;83;21023;-82
2021/11/02 16:23:17;;;;;;;51.13;25.37;;;;;;;8.83;82.27;99159.03;1691408;83;21009;-82
2021/11/02 16:25:51;;;;;;;60.05;26.75;;;;;;;8.81;82.29;99165.85;1711092;83;21022;-81
2021/11/02 16:28:24;;;;;;;74.82;31.75;;;;;;;8.77;82.29;99168.56;1708992;83;21541;-82
2021/11/02 16:30:56;;;;;;;35.58;20.10;;;;;;;8.73;82.32;99171.28;1710322;82;21426;-81
2021/11/02 16:33:43;;;;;;;35.25;19.10;;;;;;;8.72;82.33;99168.83;1711212;83;21179;-81
2021/11/02 16:36:28;;;;;;;22.52;13.13;;;;;;;8.69;82.35;99171.33;1711233;83;21014;-82